sensor_id;sensor_type;location;lat;lon;timestamp;P1;durP1;ratioP1;P2;durP2;ratioP2
19733;SDS011;10018;51.230;7.860;2024-03-06T00:02:22;61.60;;;34.03;;
19733;SDS011;10018;51.230;7.860;2024-03-06T00:04:48;59.87;;;31.00;;
19733;SDS011;10018;51.230;7.860;2024-03-06T00:07:13;52.63;;;27.03;;
19733;SDS011;10018;51.230;7.860;2024-03-06T00:09:39;51.80;;;28.03;;
19733;SDS011;10018;51.230;7.860;2024-03-06T00:12:04;47.30;;;25.47;;
19733;SDS011;10018;51.230;7.860;2024-03-06T00:14:31;43.23;;;23.57;;
19733;SDS011;10018;51.230;7.860;2024-03-06T00:16:56;48.60;;;25.23;;
19733;SDS011;10018;51.230;7.860;2024-03-06T00:19:22;47.60;;;26.03;;
19733;SDS011;10018;51.230;7.860;2024-03-06T00:21:48;54.10;;;27.83;;
19733;SDS011;10018;51.230;7.860;2024-03-06T00:24:14;53.77;;;28.13;;
19733;SDS011;10018;51.230;7.860;2024-03-06T00:26:41;48.00;;;25.40;;
19733;SDS011;10018;51.230;7.860;2024-03-06T00:29:09;55.23;;;28.00;;
19733;SDS011;10018;51.230;7.860;2024-03-06T00:31:36;61.53;;;34.23;;
19733;SDS011;10018;51.230;7.860;2024-03-06T00:34:07;75.90;;;42.03;;
19733;SDS011;10018;51.230;7.860;2024-03-06T00:36:33;69.50;;;38.60;;
19733;SDS011;10018;51.230;7.860;2024-03-06T00:38:58;53.93;;;28.63;;
19733;SDS011;10018;51.230;7.860;2024-03-06T00:41:24;47.00;;;26.87;;
19733;SDS011;10018;51.230;7.860;2024-03-06T00:43:49;47.73;;;25.00;;
19733;SDS011;10018;51.230;7.860;2024-03-06T00:46:15;43.37;;;23.13;;
19733;SDS011;10018;51.230;7.860;2024-03-06T00:48:40;46.57;;;25.30;;
19733;SDS011;10018;51.230;7.860;2024-03-06T00:51:07;48.40;;;25.27;;
19733;SDS011;10018;51.230;7.860;2024-03-06T00:53:33;50.70;;;25.97;;
19733;SDS011;10018;51.230;7.860;2024-03-06T00:56:02;45.40;;;24.60;;
19733;SDS011;10018;51.230;7.860;2024-03-06T00:58:28;48.23;;;25.60;;
19733;SDS011;10018;51.230;7.860;2024-03-06T01:00:53;42.60;;;23.50;;
19733;SDS011;10018;51.230;7.860;2024-03-06T01:03:19;49.23;;;25.13;;
19733;SDS011;10018;51.230;7.860;2024-03-06T01:05:45;51.40;;;25.17;;
19733;SDS011;10018;51.230;7.860;2024-03-06T01:08:11;48.53;;;24.77;;
19733;SDS011;10018;51.230;7.860;2024-03-06T01:10:36;45.40;;;23.33;;
19733;SDS011;10018;51.230;7.860;2024-03-06T01:13:04;44.20;;;22.97;;
19733;SDS011;10018;51.230;7.860;2024-03-06T01:15:29;44.57;;;22.17;;
19733;SDS011;10018;51.230;7.860;2024-03-06T01:17:55;50.67;;;24.97;;
19733;SDS011;10018;51.230;7.860;2024-03-06T01:20:22;42.90;;;22.40;;
19733;SDS011;10018;51.230;7.860;2024-03-06T01:22:48;43.77;;;24.03;;
19733;SDS011;10018;51.230;7.860;2024-03-06T01:25:13;46.10;;;23.63;;
19733;SDS011;10018;51.230;7.860;2024-03-06T01:27:39;45.87;;;24.53;;
19733;SDS011;10018;51.230;7.860;2024-03-06T01:30:05;50.57;;;26.23;;
19733;SDS011;10018;51.230;7.860;2024-03-06T01:32:31;54.90;;;27.60;;
19733;SDS011;10018;51.230;7.860;2024-03-06T01:34:58;48.20;;;24.70;;
19733;SDS011;10018;51.230;7.860;2024-03-06T01:37:23;49.70;;;25.03;;
19733;SDS011;10018;51.230;7.860;2024-03-06T01:39:49;48.43;;;24.67;;
19733;SDS011;10018;51.230;7.860;2024-03-06T01:42:16;50.60;;;25.70;;
19733;SDS011;10018;51.230;7.860;2024-03-06T01:44:43;49.60;;;24.17;;
19733;SDS011;10018;51.230;7.860;2024-03-06T01:47:08;48.63;;;26.37;;
19733;SDS011;10018;51.230;7.860;2024-03-06T01:49:34;50.20;;;26.57;;
19733;SDS011;10018;51.230;7.860;2024-03-06T01:52:00;48.03;;;24.67;;
19733;SDS011;10018;51.230;7.860;2024-03-06T01:54:27;50.40;;;26.57;;
19733;SDS011;10018;51.230;7.860;2024-03-06T01:56:53;51.03;;;26.47;;
19733;SDS011;10018;51.230;7.860;2024-03-06T01:59:21;57.60;;;30.33;;
19733;SDS011;10018;51.230;7.860;2024-03-06T02:01:51;52.33;;;27.93;;
19733;SDS011;10018;51.230;7.860;2024-03-06T02:04:18;47.67;;;25.07;;
19733;SDS011;10018;51.230;7.860;2024-03-06T02:06:45;50.43;;;25.47;;
19733;SDS011;10018;51.230;7.860;2024-03-06T02:09:11;47.80;;;23.77;;
19733;SDS011;10018;51.230;7.860;2024-03-06T02:11:38;46.57;;;24.10;;
19733;SDS011;10018;51.230;7.860;2024-03-06T02:14:04;43.43;;;22.13;;
19733;SDS011;10018;51.230;7.860;2024-03-06T02:16:31;43.03;;;22.30;;
19733;SDS011;10018;51.230;7.860;2024-03-06T02:18:57;45.17;;;24.80;;
19733;SDS011;10018;51.230;7.860;2024-03-06T02:21:23;51.77;;;25.70;;
19733;SDS011;10018;51.230;7.860;2024-03-06T02:23:49;51.43;;;26.27;;
19733;SDS011;10018;51.230;7.860;2024-03-06T02:26:19;47.53;;;23.57;;
19733;SDS011;10018;51.230;7.860;2024-03-06T02:28:48;47.63;;;24.47;;
19733;SDS011;10018;51.230;7.860;2024-03-06T02:31:18;43.30;;;22.10;;
19733;SDS011;10018;51.230;7.860;2024-03-06T02:33:45;44.63;;;23.13;;
19733;SDS011;10018;51.230;7.860;2024-03-06T02:36:17;40.90;;;22.20;;
19733;SDS011;10018;51.230;7.860;2024-03-06T02:38:43;47.37;;;24.13;;
19733;SDS011;10018;51.230;7.860;2024-03-06T02:41:09;47.43;;;24.27;;
19733;SDS011;10018;51.230;7.860;2024-03-06T02:43:35;47.87;;;24.60;;
19733;SDS011;10018;51.230;7.860;2024-03-06T02:46:01;47.07;;;24.63;;
19733;SDS011;10018;51.230;7.860;2024-03-06T02:48:27;52.47;;;26.50;;
19733;SDS011;10018;51.230;7.860;2024-03-06T02:50:53;51.73;;;26.27;;
19733;SDS011;10018;51.230;7.860;2024-03-06T02:53:19;48.87;;;24.40;;
19733;SDS011;10018;51.230;7.860;2024-03-06T02:55:44;49.90;;;25.03;;
19733;SDS011;10018;51.230;7.860;2024-03-06T02:58:10;50.07;;;25.67;;
19733;SDS011;10018;51.230;7.860;2024-03-06T03:00:35;53.73;;;26.13;;
19733;SDS011;10018;51.230;7.860;2024-03-06T03:03:04;50.50;;;25.20;;
19733;SDS011;10018;51.230;7.860;2024-03-06T03:05:29;45.83;;;24.50;;
19733;SDS011;10018;51.230;7.860;2024-03-06T03:07:55;45.67;;;23.50;;
19733;SDS011;10018;51.230;7.860;2024-03-06T03:10:20;52.17;;;26.70;;
19733;SDS011;10018;51.230;7.860;2024-03-06T03:12:46;56.63;;;26.47;;
19733;SDS011;10018;51.230;7.860;2024-03-06T03:15:12;50.37;;;24.67;;
19733;SDS011;10018;51.230;7.860;2024-03-06T03:17:37;50.27;;;25.17;;
19733;SDS011;10018;51.230;7.860;2024-03-06T03:20:03;50.60;;;24.97;;
19733;SDS011;10018;51.230;7.860;2024-03-06T03:22:38;49.87;;;25.50;;
19733;SDS011;10018;51.230;7.860;2024-03-06T03:25:07;45.00;;;24.90;;
19733;SDS011;10018;51.230;7.860;2024-03-06T03:27:33;48.77;;;24.03;;
19733;SDS011;10018;51.230;7.860;2024-03-06T03:29:59;49.53;;;23.90;;
19733;SDS011;10018;51.230;7.860;2024-03-06T03:32:25;52.10;;;25.13;;
19733;SDS011;10018;51.230;7.860;2024-03-06T03:34:51;55.17;;;26.80;;
19733;SDS011;10018;51.230;7.860;2024-03-06T03:37:16;54.00;;;26.30;;
19733;SDS011;10018;51.230;7.860;2024-03-06T03:39:45;59.67;;;27.70;;
19733;SDS011;10018;51.230;7.860;2024-03-06T03:42:11;55.57;;;26.63;;
19733;SDS011;10018;51.230;7.860;2024-03-06T03:44:36;54.17;;;26.37;;
19733;SDS011;10018;51.230;7.860;2024-03-06T03:47:02;58.70;;;27.30;;
19733;SDS011;10018;51.230;7.860;2024-03-06T03:49:28;58.17;;;26.93;;
19733;SDS011;10018;51.230;7.860;2024-03-06T03:51:53;52.97;;;26.20;;
19733;SDS011;10018;51.230;7.860;2024-03-06T03:54:19;53.07;;;26.17;;
19733;SDS011;10018;51.230;7.860;2024-03-06T03:56:44;52.00;;;26.13;;
19733;SDS011;10018;51.230;7.860;2024-03-06T03:59:10;53.10;;;26.77;;
19733;SDS011;10018;51.230;7.860;2024-03-06T04:01:35;56.37;;;27.57;;
19733;SDS011;10018;51.230;7.860;2024-03-06T04:04:01;54.53;;;25.37;;
19733;SDS011;10018;51.230;7.860;2024-03-06T04:06:27;59.60;;;27.67;;
19733;SDS011;10018;51.230;7.860;2024-03-06T04:08:55;59.07;;;27.60;;
19733;SDS011;10018;51.230;7.860;2024-03-06T04:11:20;55.27;;;26.20;;
19733;SDS011;10018;51.230;7.860;2024-03-06T04:13:46;63.17;;;27.57;;
19733;SDS011;10018;51.230;7.860;2024-03-06T04:16:15;62.73;;;27.83;;
19733;SDS011;10018;51.230;7.860;2024-03-06T04:18:42;59.00;;;26.83;;
19733;SDS011;10018;51.230;7.860;2024-03-06T04:21:08;58.47;;;27.10;;
19733;SDS011;10018;51.230;7.860;2024-03-06T04:23:35;60.90;;;27.23;;
19733;SDS011;10018;51.230;7.860;2024-03-06T04:26:01;61.80;;;27.87;;
19733;SDS011;10018;51.230;7.860;2024-03-06T04:28:27;67.90;;;27.43;;
19733;SDS011;10018;51.230;7.860;2024-03-06T04:30:53;55.33;;;25.50;;
19733;SDS011;10018;51.230;7.860;2024-03-06T04:33:19;57.17;;;26.33;;
19733;SDS011;10018;51.230;7.860;2024-03-06T04:35:45;56.13;;;25.70;;
19733;SDS011;10018;51.230;7.860;2024-03-06T04:38:13;54.83;;;24.90;;
19733;SDS011;10018;51.230;7.860;2024-03-06T04:40:39;57.93;;;25.33;;
19733;SDS011;10018;51.230;7.860;2024-03-06T04:43:04;59.47;;;26.20;;
19733;SDS011;10018;51.230;7.860;2024-03-06T04:45:31;59.90;;;25.67;;
19733;SDS011;10018;51.230;7.860;2024-03-06T04:47:57;55.33;;;26.23;;
19733;SDS011;10018;51.230;7.860;2024-03-06T04:50:23;55.53;;;25.17;;
19733;SDS011;10018;51.230;7.860;2024-03-06T04:52:49;50.50;;;22.77;;
19733;SDS011;10018;51.230;7.860;2024-03-06T04:55:14;49.97;;;24.27;;
19733;SDS011;10018;51.230;7.860;2024-03-06T04:57:45;52.73;;;24.17;;
19733;SDS011;10018;51.230;7.860;2024-03-06T05:00:11;55.67;;;24.80;;
19733;SDS011;10018;51.230;7.860;2024-03-06T05:02:37;55.97;;;24.57;;
19733;SDS011;10018;51.230;7.860;2024-03-06T05:05:03;52.30;;;24.30;;
19733;SDS011;10018;51.230;7.860;2024-03-06T05:07:29;52.40;;;22.53;;
19733;SDS011;10018;51.230;7.860;2024-03-06T05:09:56;44.50;;;22.13;;
19733;SDS011;10018;51.230;7.860;2024-03-06T05:12:23;50.77;;;23.40;;
19733;SDS011;10018;51.230;7.860;2024-03-06T05:14:49;50.17;;;23.23;;
19733;SDS011;10018;51.230;7.860;2024-03-06T05:17:16;50.37;;;22.57;;
19733;SDS011;10018;51.230;7.860;2024-03-06T05:19:42;48.10;;;22.10;;
19733;SDS011;10018;51.230;7.860;2024-03-06T05:22:09;46.40;;;21.60;;
19733;SDS011;10018;51.230;7.860;2024-03-06T05:24:36;48.07;;;21.93;;
19733;SDS011;10018;51.230;7.860;2024-03-06T05:27:02;54.27;;;22.50;;
19733;SDS011;10018;51.230;7.860;2024-03-06T05:29:27;54.23;;;22.13;;
19733;SDS011;10018;51.230;7.860;2024-03-06T05:31:53;46.53;;;22.20;;
19733;SDS011;10018;51.230;7.860;2024-03-06T05:34:20;52.13;;;23.93;;
19733;SDS011;10018;51.230;7.860;2024-03-06T05:36:47;49.97;;;22.60;;
19733;SDS011;10018;51.230;7.860;2024-03-06T05:39:13;49.67;;;22.37;;
19733;SDS011;10018;51.230;7.860;2024-03-06T05:41:41;56.57;;;23.23;;
19733;SDS011;10018;51.230;7.860;2024-03-06T05:44:07;49.23;;;22.53;;
19733;SDS011;10018;51.230;7.860;2024-03-06T05:46:33;54.40;;;23.73;;
19733;SDS011;10018;51.230;7.860;2024-03-06T05:48:59;52.77;;;23.50;;
19733;SDS011;10018;51.230;7.860;2024-03-06T05:51:26;52.77;;;23.33;;
19733;SDS011;10018;51.230;7.860;2024-03-06T05:53:51;51.20;;;21.97;;
19733;SDS011;10018;51.230;7.860;2024-03-06T05:56:17;49.50;;;22.03;;
19733;SDS011;10018;51.230;7.860;2024-03-06T05:58:43;58.00;;;24.20;;
19733;SDS011;10018;51.230;7.860;2024-03-06T06:01:11;54.90;;;23.30;;
19733;SDS011;10018;51.230;7.860;2024-03-06T06:03:40;50.70;;;23.30;;
19733;SDS011;10018;51.230;7.860;2024-03-06T06:06:06;51.90;;;22.70;;
19733;SDS011;10018;51.230;7.860;2024-03-06T06:08:33;52.60;;;23.50;;
19733;SDS011;10018;51.230;7.860;2024-03-06T06:10:59;52.10;;;23.47;;
19733;SDS011;10018;51.230;7.860;2024-03-06T06:13:27;53.50;;;23.43;;
19733;SDS011;10018;51.230;7.860;2024-03-06T06:15:53;53.63;;;23.60;;
19733;SDS011;10018;51.230;7.860;2024-03-06T06:18:19;52.63;;;22.53;;
19733;SDS011;10018;51.230;7.860;2024-03-06T06:20:45;50.93;;;22.60;;
19733;SDS011;10018;51.230;7.860;2024-03-06T06:23:10;50.23;;;22.07;;
19733;SDS011;10018;51.230;7.860;2024-03-06T06:25:36;53.47;;;23.60;;
19733;SDS011;10018;51.230;7.860;2024-03-06T06:28:02;50.07;;;22.70;;
19733;SDS011;10018;51.230;7.860;2024-03-06T06:30:28;49.13;;;21.73;;
19733;SDS011;10018;51.230;7.860;2024-03-06T06:32:54;55.33;;;22.70;;
19733;SDS011;10018;51.230;7.860;2024-03-06T06:35:20;52.37;;;23.73;;
19733;SDS011;10018;51.230;7.860;2024-03-06T06:37:48;51.83;;;22.73;;
19733;SDS011;10018;51.230;7.860;2024-03-06T06:40:13;49.23;;;22.87;;
19733;SDS011;10018;51.230;7.860;2024-03-06T06:42:48;51.80;;;22.20;;
19733;SDS011;10018;51.230;7.860;2024-03-06T06:45:18;51.17;;;22.30;;
19733;SDS011;10018;51.230;7.860;2024-03-06T06:47:49;55.77;;;21.57;;
19733;SDS011;10018;51.230;7.860;2024-03-06T06:50:16;46.80;;;21.17;;
19733;SDS011;10018;51.230;7.860;2024-03-06T06:52:42;48.87;;;21.90;;
19733;SDS011;10018;51.230;7.860;2024-03-06T06:55:08;49.47;;;21.83;;
19733;SDS011;10018;51.230;7.860;2024-03-06T06:57:37;47.07;;;22.37;;
19733;SDS011;10018;51.230;7.860;2024-03-06T07:00:03;47.87;;;21.47;;
19733;SDS011;10018;51.230;7.860;2024-03-06T07:02:38;48.67;;;22.17;;
19733;SDS011;10018;51.230;7.860;2024-03-06T07:05:05;61.27;;;22.07;;
19733;SDS011;10018;51.230;7.860;2024-03-06T07:07:32;49.47;;;20.90;;
19733;SDS011;10018;51.230;7.860;2024-03-06T07:09:57;51.33;;;20.57;;
19733;SDS011;10018;51.230;7.860;2024-03-06T07:12:25;42.87;;;20.20;;
19733;SDS011;10018;51.230;7.860;2024-03-06T07:14:53;54.37;;;22.43;;
19733;SDS011;10018;51.230;7.860;2024-03-06T07:17:19;57.37;;;25.50;;
19733;SDS011;10018;51.230;7.860;2024-03-06T07:19:44;52.57;;;24.03;;
19733;SDS011;10018;51.230;7.860;2024-03-06T07:22:10;54.30;;;21.10;;
19733;SDS011;10018;51.230;7.860;2024-03-06T07:24:35;50.67;;;21.90;;
19733;SDS011;10018;51.230;7.860;2024-03-06T07:27:02;42.23;;;19.97;;
19733;SDS011;10018;51.230;7.860;2024-03-06T07:29:27;49.80;;;20.47;;
19733;SDS011;10018;51.230;7.860;2024-03-06T07:31:53;46.97;;;20.60;;
19733;SDS011;10018;51.230;7.860;2024-03-06T07:34:19;44.43;;;20.47;;
19733;SDS011;10018;51.230;7.860;2024-03-06T07:36:46;51.87;;;20.87;;
19733;SDS011;10018;51.230;7.860;2024-03-06T07:39:12;48.97;;;21.73;;
19733;SDS011;10018;51.230;7.860;2024-03-06T07:41:40;53.50;;;20.20;;
19733;SDS011;10018;51.230;7.860;2024-03-06T07:44:05;53.00;;;21.80;;
19733;SDS011;10018;51.230;7.860;2024-03-06T07:46:31;44.93;;;19.60;;
19733;SDS011;10018;51.230;7.860;2024-03-06T07:48:56;46.70;;;20.93;;
19733;SDS011;10018;51.230;7.860;2024-03-06T07:51:22;50.63;;;20.70;;
19733;SDS011;10018;51.230;7.860;2024-03-06T07:53:50;50.10;;;21.60;;
19733;SDS011;10018;51.230;7.860;2024-03-06T07:56:17;47.27;;;20.37;;
19733;SDS011;10018;51.230;7.860;2024-03-06T07:58:45;51.50;;;21.83;;
19733;SDS011;10018;51.230;7.860;2024-03-06T08:01:13;48.50;;;21.70;;
19733;SDS011;10018;51.230;7.860;2024-03-06T08:03:41;49.20;;;21.60;;
19733;SDS011;10018;51.230;7.860;2024-03-06T08:06:08;49.73;;;22.37;;
19733;SDS011;10018;51.230;7.860;2024-03-06T08:08:34;47.77;;;22.00;;
19733;SDS011;10018;51.230;7.860;2024-03-06T08:11:05;47.20;;;21.73;;
19733;SDS011;10018;51.230;7.860;2024-03-06T08:13:37;48.40;;;21.93;;
19733;SDS011;10018;51.230;7.860;2024-03-06T08:16:05;48.60;;;21.17;;
19733;SDS011;10018;51.230;7.860;2024-03-06T08:18:34;46.73;;;20.67;;
19733;SDS011;10018;51.230;7.860;2024-03-06T08:21:01;49.00;;;20.77;;
19733;SDS011;10018;51.230;7.860;2024-03-06T08:23:30;47.73;;;22.17;;
19733;SDS011;10018;51.230;7.860;2024-03-06T08:25:55;46.40;;;21.17;;
19733;SDS011;10018;51.230;7.860;2024-03-06T08:28:21;48.67;;;21.47;;
19733;SDS011;10018;51.230;7.860;2024-03-06T08:30:47;52.83;;;22.00;;
19733;SDS011;10018;51.230;7.860;2024-03-06T08:33:13;47.30;;;21.37;;
19733;SDS011;10018;51.230;7.860;2024-03-06T08:35:39;45.83;;;21.13;;
19733;SDS011;10018;51.230;7.860;2024-03-06T08:38:05;46.43;;;20.17;;
19733;SDS011;10018;51.230;7.860;2024-03-06T08:40:31;47.23;;;21.23;;
19733;SDS011;10018;51.230;7.860;2024-03-06T08:42:57;46.53;;;21.17;;
19733;SDS011;10018;51.230;7.860;2024-03-06T08:45:23;42.77;;;20.03;;
19733;SDS011;10018;51.230;7.860;2024-03-06T08:47:51;43.60;;;21.57;;
19733;SDS011;10018;51.230;7.860;2024-03-06T08:50:19;43.20;;;20.03;;
19733;SDS011;10018;51.230;7.860;2024-03-06T08:52:44;46.93;;;20.43;;
19733;SDS011;10018;51.230;7.860;2024-03-06T08:55:11;48.63;;;22.30;;
19733;SDS011;10018;51.230;7.860;2024-03-06T08:57:37;49.03;;;22.13;;
19733;SDS011;10018;51.230;7.860;2024-03-06T09:00:07;44.53;;;21.20;;
19733;SDS011;10018;51.230;7.860;2024-03-06T09:02:36;43.30;;;20.50;;
19733;SDS011;10018;51.230;7.860;2024-03-06T09:05:09;88.97;;;50.03;;
19733;SDS011;10018;51.230;7.860;2024-03-06T09:07:38;85.80;;;45.03;;
19733;SDS011;10018;51.230;7.860;2024-03-06T09:10:08;88.43;;;55.60;;
19733;SDS011;10018;51.230;7.860;2024-03-06T09:12:39;51.13;;;28.80;;
19733;SDS011;10018;51.230;7.860;2024-03-06T09:15:07;44.13;;;20.90;;
19733;SDS011;10018;51.230;7.860;2024-03-06T09:17:33;44.30;;;23.47;;
19733;SDS011;10018;51.230;7.860;2024-03-06T09:19:59;46.57;;;22.47;;
19733;SDS011;10018;51.230;7.860;2024-03-06T09:22:34;42.67;;;22.03;;
19733;SDS011;10018;51.230;7.860;2024-03-06T09:25:09;43.67;;;22.67;;
19733;SDS011;10018;51.230;7.860;2024-03-06T09:27:38;66.30;;;39.00;;
19733;SDS011;10018;51.230;7.860;2024-03-06T09:30:04;62.00;;;33.63;;
19733;SDS011;10018;51.230;7.860;2024-03-06T09:32:30;48.90;;;23.20;;
19733;SDS011;10018;51.230;7.860;2024-03-06T09:34:56;44.40;;;21.63;;
19733;SDS011;10018;51.230;7.860;2024-03-06T09:37:21;47.23;;;22.63;;
19733;SDS011;10018;51.230;7.860;2024-03-06T09:39:47;51.83;;;24.00;;
19733;SDS011;10018;51.230;7.860;2024-03-06T09:42:16;43.60;;;21.70;;
19733;SDS011;10018;51.230;7.860;2024-03-06T09:44:41;47.70;;;23.10;;
19733;SDS011;10018;51.230;7.860;2024-03-06T09:47:09;44.73;;;23.13;;
19733;SDS011;10018;51.230;7.860;2024-03-06T09:49:39;46.03;;;22.60;;
19733;SDS011;10018;51.230;7.860;2024-03-06T09:52:06;44.07;;;22.17;;
19733;SDS011;10018;51.230;7.860;2024-03-06T09:54:31;46.63;;;21.77;;
19733;SDS011;10018;51.230;7.860;2024-03-06T09:56:57;46.50;;;22.60;;
19733;SDS011;10018;51.230;7.860;2024-03-06T09:59:24;45.80;;;22.17;;
19733;SDS011;10018;51.230;7.860;2024-03-06T10:01:50;43.27;;;22.53;;
19733;SDS011;10018;51.230;7.860;2024-03-06T10:04:26;45.77;;;22.53;;
19733;SDS011;10018;51.230;7.860;2024-03-06T10:06:53;47.23;;;22.27;;
19733;SDS011;10018;51.230;7.860;2024-03-06T10:09:20;46.07;;;23.33;;
19733;SDS011;10018;51.230;7.860;2024-03-06T10:11:46;46.83;;;21.83;;
19733;SDS011;10018;51.230;7.860;2024-03-06T10:14:12;47.40;;;23.67;;
19733;SDS011;10018;51.230;7.860;2024-03-06T10:16:51;43.80;;;22.73;;
19733;SDS011;10018;51.230;7.860;2024-03-06T10:19:17;49.57;;;26.47;;
19733;SDS011;10018;51.230;7.860;2024-03-06T10:21:46;45.07;;;22.90;;
19733;SDS011;10018;51.230;7.860;2024-03-06T10:24:19;86.23;;;49.63;;
19733;SDS011;10018;51.230;7.860;2024-03-06T10:26:45;64.50;;;39.13;;
19733;SDS011;10018;51.230;7.860;2024-03-06T10:29:18;50.43;;;25.83;;
19733;SDS011;10018;51.230;7.860;2024-03-06T10:31:53;45.77;;;24.23;;
19733;SDS011;10018;51.230;7.860;2024-03-06T10:34:21;44.93;;;24.77;;
19733;SDS011;10018;51.230;7.860;2024-03-06T10:36:53;43.90;;;23.80;;
19733;SDS011;10018;51.230;7.860;2024-03-06T10:39:20;43.93;;;23.23;;
19733;SDS011;10018;51.230;7.860;2024-03-06T10:41:54;44.93;;;23.57;;
19733;SDS011;10018;51.230;7.860;2024-03-06T10:44:25;45.97;;;23.47;;
19733;SDS011;10018;51.230;7.860;2024-03-06T10:46:58;42.73;;;23.27;;
19733;SDS011;10018;51.230;7.860;2024-03-06T10:49:28;46.17;;;24.17;;
19733;SDS011;10018;51.230;7.860;2024-03-06T10:51:57;41.87;;;22.80;;
19733;SDS011;10018;51.230;7.860;2024-03-06T10:54:27;43.73;;;23.60;;
19733;SDS011;10018;51.230;7.860;2024-03-06T10:56:57;41.97;;;22.47;;
19733;SDS011;10018;51.230;7.860;2024-03-06T10:59:24;42.97;;;24.00;;
19733;SDS011;10018;51.230;7.860;2024-03-06T11:01:56;45.30;;;23.63;;
19733;SDS011;10018;51.230;7.860;2024-03-06T11:04:26;43.83;;;23.87;;
19733;SDS011;10018;51.230;7.860;2024-03-06T11:06:58;43.03;;;22.87;;
19733;SDS011;10018;51.230;7.860;2024-03-06T11:09:24;39.63;;;22.13;;
19733;SDS011;10018;51.230;7.860;2024-03-06T11:12:08;39.07;;;21.53;;
19733;SDS011;10018;51.230;7.860;2024-03-06T11:14:37;38.40;;;21.07;;
19733;SDS011;10018;51.230;7.860;2024-03-06T11:17:04;42.47;;;23.47;;
19733;SDS011;10018;51.230;7.860;2024-03-06T11:19:32;39.63;;;21.17;;
19733;SDS011;10018;51.230;7.860;2024-03-06T11:28:14;34.60;;;19.30;;
19733;SDS011;10018;51.230;7.860;2024-03-06T11:30:45;35.27;;;19.80;;
19733;SDS011;10018;51.230;7.860;2024-03-06T11:33:12;34.10;;;20.33;;
19733;SDS011;10018;51.230;7.860;2024-03-06T11:35:41;35.50;;;19.83;;
19733;SDS011;10018;51.230;7.860;2024-03-06T11:38:16;29.77;;;18.67;;
19733;SDS011;10018;51.230;7.860;2024-03-06T11:40:45;29.13;;;16.90;;
19733;SDS011;10018;51.230;7.860;2024-03-06T11:43:24;28.77;;;17.10;;
19733;SDS011;10018;51.230;7.860;2024-03-06T11:45:51;29.33;;;17.10;;
19733;SDS011;10018;51.230;7.860;2024-03-06T11:48:17;25.10;;;15.63;;
19733;SDS011;10018;51.230;7.860;2024-03-06T11:50:46;21.23;;;12.20;;
19733;SDS011;10018;51.230;7.860;2024-03-06T11:53:15;19.50;;;12.73;;
19733;SDS011;10018;51.230;7.860;2024-03-06T11:55:42;14.97;;;10.00;;
19733;SDS011;10018;51.230;7.860;2024-03-06T11:58:10;18.43;;;10.50;;
19733;SDS011;10018;51.230;7.860;2024-03-06T12:00:37;18.43;;;10.60;;
19733;SDS011;10018;51.230;7.860;2024-03-06T12:03:03;20.33;;;12.07;;
19733;SDS011;10018;51.230;7.860;2024-03-06T12:05:30;21.80;;;13.97;;
19733;SDS011;10018;51.230;7.860;2024-03-06T12:08:01;19.37;;;11.80;;
19733;SDS011;10018;51.230;7.860;2024-03-06T12:10:28;22.63;;;14.93;;
19733;SDS011;10018;51.230;7.860;2024-03-06T12:12:54;18.37;;;11.80;;
19733;SDS011;10018;51.230;7.860;2024-03-06T12:15:19;20.40;;;11.20;;
19733;SDS011;10018;51.230;7.860;2024-03-06T12:17:47;17.60;;;11.53;;
19733;SDS011;10018;51.230;7.860;2024-03-06T12:20:15;18.30;;;11.17;;
19733;SDS011;10018;51.230;7.860;2024-03-06T12:22:59;16.83;;;10.93;;
19733;SDS011;10018;51.230;7.860;2024-03-06T12:25:27;14.23;;;9.37;;
19733;SDS011;10018;51.230;7.860;2024-03-06T12:27:54;16.27;;;9.13;;
19733;SDS011;10018;51.230;7.860;2024-03-06T12:30:21;13.87;;;8.40;;
19733;SDS011;10018;51.230;7.860;2024-03-06T12:33:00;17.47;;;10.33;;
19733;SDS011;10018;51.230;7.860;2024-03-06T12:35:29;22.17;;;11.67;;
19733;SDS011;10018;51.230;7.860;2024-03-06T12:37:55;14.00;;;7.63;;
19733;SDS011;10018;51.230;7.860;2024-03-06T12:40:21;13.00;;;8.33;;
19733;SDS011;10018;51.230;7.860;2024-03-06T12:42:47;16.40;;;9.60;;
19733;SDS011;10018;51.230;7.860;2024-03-06T12:45:15;16.77;;;10.00;;
19733;SDS011;10018;51.230;7.860;2024-03-06T12:47:45;18.00;;;11.03;;
19733;SDS011;10018;51.230;7.860;2024-03-06T12:50:13;17.33;;;11.33;;
19733;SDS011;10018;51.230;7.860;2024-03-06T12:52:39;18.40;;;10.20;;
19733;SDS011;10018;51.230;7.860;2024-03-06T12:55:06;17.87;;;10.93;;
19733;SDS011;10018;51.230;7.860;2024-03-06T12:57:32;19.53;;;11.90;;
19733;SDS011;10018;51.230;7.860;2024-03-06T12:59:58;20.50;;;11.50;;
19733;SDS011;10018;51.230;7.860;2024-03-06T13:02:24;18.33;;;11.67;;
19733;SDS011;10018;51.230;7.860;2024-03-06T13:04:50;14.53;;;8.60;;
19733;SDS011;10018;51.230;7.860;2024-03-06T13:07:16;14.40;;;9.00;;
19733;SDS011;10018;51.230;7.860;2024-03-06T13:09:41;15.90;;;8.63;;
19733;SDS011;10018;51.230;7.860;2024-03-06T13:12:07;13.47;;;8.00;;
19733;SDS011;10018;51.230;7.860;2024-03-06T13:14:33;10.23;;;6.30;;
19733;SDS011;10018;51.230;7.860;2024-03-06T13:16:59;14.07;;;7.40;;
19733;SDS011;10018;51.230;7.860;2024-03-06T13:19:27;11.20;;;6.77;;
19733;SDS011;10018;51.230;7.860;2024-03-06T13:21:54;10.23;;;6.63;;
19733;SDS011;10018;51.230;7.860;2024-03-06T13:24:20;10.60;;;6.77;;
19733;SDS011;10018;51.230;7.860;2024-03-06T13:26:46;10.80;;;6.90;;
19733;SDS011;10018;51.230;7.860;2024-03-06T13:29:12;14.50;;;9.73;;
19733;SDS011;10018;51.230;7.860;2024-03-06T13:31:38;20.73;;;12.40;;
19733;SDS011;10018;51.230;7.860;2024-03-06T13:34:03;18.43;;;12.07;;
19733;SDS011;10018;51.230;7.860;2024-03-06T13:36:29;18.93;;;12.67;;
19733;SDS011;10018;51.230;7.860;2024-03-06T13:38:55;22.73;;;15.47;;
19733;SDS011;10018;51.230;7.860;2024-03-06T13:41:21;24.17;;;15.47;;
19733;SDS011;10018;51.230;7.860;2024-03-06T13:43:47;29.60;;;18.37;;
19733;SDS011;10018;51.230;7.860;2024-03-06T13:46:13;28.00;;;18.27;;
19733;SDS011;10018;51.230;7.860;2024-03-06T13:48:41;30.70;;;18.10;;
19733;SDS011;10018;51.230;7.860;2024-03-06T13:51:09;28.37;;;18.63;;
19733;SDS011;10018;51.230;7.860;2024-03-06T13:53:34;28.03;;;16.80;;
19733;SDS011;10018;51.230;7.860;2024-03-06T13:56:00;28.50;;;17.63;;
19733;SDS011;10018;51.230;7.860;2024-03-06T13:58:25;31.53;;;18.90;;
19733;SDS011;10018;51.230;7.860;2024-03-06T14:00:51;32.57;;;20.77;;
19733;SDS011;10018;51.230;7.860;2024-03-06T14:03:17;31.63;;;19.63;;
19733;SDS011;10018;51.230;7.860;2024-03-06T14:05:42;35.70;;;21.07;;
19733;SDS011;10018;51.230;7.860;2024-03-06T14:08:08;32.37;;;20.97;;
19733;SDS011;10018;51.230;7.860;2024-03-06T14:10:36;35.83;;;22.33;;
19733;SDS011;10018;51.230;7.860;2024-03-06T14:13:04;33.40;;;21.53;;
19733;SDS011;10018;51.230;7.860;2024-03-06T14:15:30;33.27;;;20.40;;
19733;SDS011;10018;51.230;7.860;2024-03-06T14:17:56;35.63;;;23.67;;
19733;SDS011;10018;51.230;7.860;2024-03-06T14:20:22;37.23;;;24.87;;
19733;SDS011;10018;51.230;7.860;2024-03-06T14:22:48;39.20;;;27.07;;
19733;SDS011;10018;51.230;7.860;2024-03-06T14:25:14;39.27;;;26.90;;
19733;SDS011;10018;51.230;7.860;2024-03-06T14:27:40;41.93;;;27.33;;